createdAt,value
2022-12-25T00:00:42.340Z,2.38
2022-12-25T00:03:09.056Z,2.39
2022-12-25T00:05:38.856Z,2.40
2022-12-25T00:08:06.776Z,2.43
2022-12-25T00:10:33.823Z,2.41
2022-12-25T00:13:00.561Z,2.43
2022-12-25T00:15:27.596Z,2.43
2022-12-25T00:17:54.309Z,2.46
2022-12-25T00:20:21.045Z,2.48
2022-12-25T00:22:47.729Z,2.47
2022-12-25T00:25:14.516Z,2.38
2022-12-25T00:27:41.284Z,2.28
2022-12-25T00:30:08.812Z,2.25
2022-12-25T00:32:37.483Z,2.17
2022-12-25T00:35:05.619Z,2.08
2022-12-25T00:37:32.317Z,1.98
2022-12-25T00:39:59.046Z,1.96
2022-12-25T00:42:27.014Z,1.87
2022-12-25T00:44:53.704Z,2.02
2022-12-25T00:47:20.462Z,2.02
2022-12-25T00:49:47.327Z,2.03
2022-12-25T00:52:14.249Z,2.03
2022-12-25T00:54:40.983Z,1.97
2022-12-25T00:57:07.769Z,1.94
2022-12-25T00:59:34.869Z,1.95
2022-12-25T01:02:22.249Z,1.98
2022-12-25T01:04:50.761Z,1.98
2022-12-25T01:07:18.933Z,2.02
2022-12-25T01:10:04.780Z,1.96
2022-12-25T01:12:33.602Z,1.95
2022-12-25T01:15:00.396Z,1.97
2022-12-25T01:17:27.117Z,2.04
2022-12-25T01:19:53.908Z,2.09
2022-12-25T01:22:20.663Z,2.17
2022-12-25T01:24:47.361Z,2.25
2022-12-25T01:27:15.128Z,2.29
2022-12-25T01:29:41.825Z,2.22
2022-12-25T01:32:08.695Z,2.17
2022-12-25T01:34:35.935Z,2.15
2022-12-25T01:37:02.670Z,2.13
2022-12-25T01:39:29.405Z,2.11
2022-12-25T01:41:56.636Z,2.13
2022-12-25T01:44:35.352Z,2.17
2022-12-25T01:47:05.723Z,2.21
2022-12-25T01:49:35.748Z,2.25
2022-12-25T01:52:11.124Z,2.25
2022-12-25T01:54:50.607Z,2.22
2022-12-25T01:57:23.550Z,2.30
2022-12-25T01:59:50.565Z,2.30
2022-12-25T02:02:17.716Z,2.27
2022-12-25T02:04:54.282Z,1.94
2022-12-25T02:07:23.977Z,1.84
2022-12-25T02:09:51.776Z,1.82
2022-12-25T02:12:32.893Z,1.80
2022-12-25T02:15:06.025Z,1.81
2022-12-25T02:17:41.720Z,1.82
2022-12-25T02:20:39.723Z,1.80
2022-12-25T02:23:15.484Z,1.72
2022-12-25T02:26:18.247Z,1.67
2022-12-25T02:28:53.698Z,1.75
2022-12-25T02:31:43.376Z,1.77
2022-12-25T02:34:32.896Z,1.75
2022-12-25T02:37:18.215Z,1.65
2022-12-25T02:39:59.432Z,1.64
2022-12-25T02:42:55.715Z,1.64
2022-12-25T02:45:53.373Z,1.73
2022-12-25T02:48:42.285Z,1.70
2022-12-25T02:51:32.490Z,1.68
2022-12-25T02:54:20.357Z,1.75
2022-12-25T02:57:07.732Z,1.82
2022-12-25T02:59:57.637Z,1.88
2022-12-25T03:02:45.705Z,1.92
2022-12-25T03:05:53.381Z,1.96
2022-12-25T03:08:24.548Z,1.83
2022-12-25T03:11:21.856Z,1.70
2022-12-25T03:13:51.557Z,1.70
2022-12-25T03:16:42.671Z,1.75
2022-12-25T03:19:28.152Z,1.81
2022-12-25T03:22:14.515Z,1.84
2022-12-25T03:25:00.330Z,1.85
2022-12-25T03:27:30.767Z,1.87
2022-12-25T03:30:16.308Z,1.92
2022-12-25T03:33:23.386Z,1.94
2022-12-25T03:36:07.784Z,1.98
2022-12-25T03:38:50.022Z,1.96
2022-12-25T03:42:01.605Z,1.94
2022-12-25T03:44:53.600Z,1.93
2022-12-25T03:47:51.756Z,1.92
2022-12-25T03:51:06.298Z,1.83
2022-12-25T03:54:00.214Z,1.74
2022-12-25T03:56:47.065Z,1.49
2022-12-25T03:59:40.415Z,1.67
2022-12-25T04:02:28.423Z,1.69
2022-12-25T04:05:14.053Z,1.76
2022-12-25T04:07:59.304Z,1.82
2022-12-25T04:10:44.408Z,1.85
2022-12-25T04:13:29.784Z,1.73
2022-12-25T04:16:15.132Z,1.47
2022-12-25T04:19:00.421Z,1.39
2022-12-25T04:21:45.741Z,1.27
2022-12-25T04:24:30.938Z,1.34
2022-12-25T04:27:16.206Z,1.38
2022-12-25T04:30:01.515Z,1.43
2022-12-25T04:32:46.616Z,1.38
2022-12-25T04:35:32.108Z,1.04
2022-12-25T04:37:58.988Z,0.91
2022-12-25T04:40:25.731Z,0.75
2022-12-25T04:42:53.290Z,0.76
2022-12-25T04:45:20.441Z,0.84
2022-12-25T04:47:47.051Z,0.88
2022-12-25T04:50:13.786Z,0.74
2022-12-25T04:52:41.956Z,0.60
2022-12-25T04:55:10.956Z,0.73
2022-12-25T04:57:38.317Z,1.02
2022-12-25T05:00:06.084Z,1.17
2022-12-25T05:02:33.357Z,1.32
2022-12-25T05:05:00.245Z,1.37
2022-12-25T05:07:27.046Z,1.35
2022-12-25T05:09:53.771Z,1.28
2022-12-25T05:12:20.497Z,1.13
2022-12-25T05:14:47.251Z,1.04
2022-12-25T05:17:14.047Z,0.95
2022-12-25T05:19:40.744Z,0.87
2022-12-25T05:22:07.512Z,0.85
2022-12-25T05:24:34.218Z,0.91
2022-12-25T05:27:01.021Z,0.79
2022-12-25T05:29:27.833Z,0.78
2022-12-25T05:31:54.558Z,0.76
2022-12-25T05:34:21.274Z,0.75
2022-12-25T05:36:48.056Z,0.75
2022-12-25T05:39:14.751Z,0.70
2022-12-25T05:41:41.460Z,0.70
2022-12-25T05:44:08.702Z,0.69
2022-12-25T05:46:35.287Z,0.72
2022-12-25T05:49:02.208Z,0.75
2022-12-25T05:51:28.901Z,0.74
2022-12-25T05:53:55.822Z,0.66
2022-12-25T05:56:22.665Z,0.48
2022-12-25T05:58:49.436Z,0.36
2022-12-25T06:01:20.476Z,0.36
2022-12-25T06:03:48.055Z,0.43
2022-12-25T06:06:14.995Z,0.51
2022-12-25T06:08:41.891Z,0.71
2022-12-25T06:11:11.039Z,0.78
2022-12-25T06:13:37.855Z,0.79
2022-12-25T06:16:10.125Z,1.10
2022-12-25T06:18:41.757Z,1.18
2022-12-25T06:21:13.599Z,1.07
2022-12-25T06:23:41.237Z,0.99
2022-12-25T06:26:11.055Z,0.83
2022-12-25T06:28:37.781Z,0.73
2022-12-25T06:31:09.347Z,0.61
2022-12-25T06:33:36.959Z,0.54
2022-12-25T06:36:13.960Z,0.48
2022-12-25T06:38:41.519Z,0.41
2022-12-25T06:41:23.033Z,0.19
2022-12-25T06:43:51.640Z,0.05
2022-12-25T06:46:19.344Z,-0.06
2022-12-25T06:48:50.062Z,-0.02
2022-12-25T06:51:22.145Z,-0.04
2022-12-25T06:53:50.085Z,-0.30
2022-12-25T06:56:20.135Z,-0.36
2022-12-25T06:58:51.673Z,0.01
2022-12-25T07:01:29.037Z,0.27
2022-12-25T07:03:59.039Z,0.29
2022-12-25T07:06:26.365Z,0.24
2022-12-25T07:08:52.931Z,0.32
2022-12-25T07:11:20.664Z,0.47
2022-12-25T07:13:47.868Z,0.61
2022-12-25T07:16:14.751Z,0.71
2022-12-25T07:18:42.557Z,0.65
2022-12-25T07:21:13.617Z,0.69
2022-12-25T07:23:40.852Z,0.72
2022-12-25T07:26:08.273Z,0.74
2022-12-25T07:28:35.216Z,0.86
2022-12-25T07:31:08.063Z,1.13
2022-12-25T07:33:34.889Z,1.33
2022-12-25T07:36:01.884Z,1.51
2022-12-25T07:38:29.173Z,1.68
2022-12-25T07:40:55.920Z,2.04
2022-12-25T07:43:23.016Z,2.27
2022-12-25T07:45:56.425Z,2.14
2022-12-25T07:48:23.422Z,2.08
2022-12-25T07:50:59.355Z,2.02
2022-12-25T07:53:27.652Z,1.88
2022-12-25T07:56:03.079Z,1.90
2022-12-25T07:58:30.953Z,1.77
2022-12-25T08:01:07.294Z,1.59
2022-12-25T08:03:35.517Z,1.47
2022-12-25T08:06:05.558Z,1.56
2022-12-25T08:08:33.045Z,1.49
2022-12-25T08:11:00.330Z,1.53
2022-12-25T08:13:30.226Z,1.52
2022-12-25T08:15:59.235Z,1.60
2022-12-25T08:18:29.920Z,1.61
2022-12-25T08:21:02.227Z,1.62
2022-12-25T08:23:28.954Z,1.72
2022-12-25T08:26:04.437Z,1.80
2022-12-25T08:28:33.579Z,1.76
2022-12-25T08:31:05.417Z,1.73
2022-12-25T08:33:32.566Z,1.81
2022-12-25T08:36:05.471Z,1.87
2022-12-25T08:38:32.860Z,1.91
2022-12-25T08:40:59.388Z,2.06
2022-12-25T08:43:26.182Z,2.13
2022-12-25T08:45:53.033Z,2.25
2022-12-25T08:48:19.802Z,2.51
2022-12-25T08:50:48.049Z,2.76
2022-12-25T08:53:15.854Z,2.99
2022-12-25T08:55:42.646Z,3.24
2022-12-25T08:58:10.993Z,3.37
2022-12-25T09:00:37.799Z,3.53
2022-12-25T09:03:04.753Z,3.72
2022-12-25T09:05:31.611Z,3.73
2022-12-25T09:07:58.496Z,3.89
2022-12-25T09:10:25.272Z,3.98
2022-12-25T09:12:51.957Z,3.99
2022-12-25T09:15:18.933Z,4.00
2022-12-25T09:17:45.673Z,3.93
2022-12-25T09:20:12.480Z,3.97
2022-12-25T09:22:39.193Z,4.10
2022-12-25T09:25:06.143Z,4.14
2022-12-25T09:27:32.847Z,4.30
2022-12-25T09:29:59.549Z,4.38
2022-12-25T09:32:26.382Z,4.49
2022-12-25T09:34:53.070Z,4.54
2022-12-25T09:37:19.768Z,4.85
2022-12-25T09:39:46.757Z,5.21
2022-12-25T09:42:22.511Z,5.52
2022-12-25T09:44:59.152Z,5.72
2022-12-25T09:47:31.039Z,6.12
2022-12-25T09:50:07.816Z,6.38
2022-12-25T09:52:43.878Z,6.79
2022-12-25T09:55:20.629Z,6.81
2022-12-25T09:57:55.904Z,6.44
2022-12-25T10:00:25.167Z,6.05
2022-12-25T10:03:10.322Z,6.36
2022-12-25T10:06:13.296Z,6.58
2022-12-25T10:09:02.958Z,7.51
2022-12-25T10:11:47.978Z,8.25
2022-12-25T10:14:25.725Z,8.63
2022-12-25T10:16:58.273Z,9.07
2022-12-25T10:19:47.630Z,9.63
2022-12-25T10:22:25.723Z,9.61
2022-12-25T10:24:56.841Z,9.92
2022-12-25T10:27:38.120Z,10.39
2022-12-25T10:30:15.695Z,10.65
2022-12-25T10:32:44.832Z,10.55
2022-12-25T10:35:18.653Z,10.48
2022-12-25T10:37:52.966Z,10.69
2022-12-25T10:40:38.469Z,10.69
2022-12-25T10:43:18.422Z,10.98
2022-12-25T10:45:47.870Z,11.03
2022-12-25T10:48:29.346Z,11.03
2022-12-25T10:50:56.739Z,10.99
2022-12-25T10:53:28.184Z,10.64
2022-12-25T10:56:04.801Z,10.64
2022-12-25T10:58:32.499Z,10.94
2022-12-25T11:01:07.134Z,11.36
2022-12-25T11:03:37.244Z,11.49
2022-12-25T11:06:05.084Z,11.85
2022-12-25T11:08:34.687Z,11.82
2022-12-25T11:11:06.314Z,11.50
2022-12-25T11:13:40.382Z,11.59
2022-12-25T11:16:14.498Z,11.28
2022-12-25T11:18:48.840Z,11.54
2022-12-25T11:21:17.530Z,11.84
2022-12-25T11:23:56.375Z,12.10
2022-12-25T11:26:23.485Z,12.70
2022-12-25T11:28:51.396Z,13.28
2022-12-25T11:31:21.677Z,13.67
2022-12-25T11:33:52.457Z,14.00
2022-12-25T11:36:25.896Z,14.20
2022-12-25T11:38:52.906Z,14.55
2022-12-25T11:41:23.264Z,14.01
2022-12-25T11:43:56.044Z,13.47
2022-12-25T11:46:41.530Z,12.91
2022-12-25T11:49:14.696Z,12.47
2022-12-25T11:51:45.931Z,12.19
2022-12-25T11:54:38.222Z,12.39
2022-12-25T11:57:07.174Z,13.00
2022-12-25T11:59:40.267Z,13.58
2022-12-25T12:02:36.846Z,14.05
2022-12-25T12:05:15.148Z,14.59
2022-12-25T12:07:52.573Z,15.05
2022-12-25T12:10:47.878Z,15.38
2022-12-25T12:13:29.545Z,15.67
2022-12-25T12:15:57.733Z,15.86
2022-12-25T12:18:27.475Z,15.89
2022-12-25T12:21:18.653Z,16.00
2022-12-25T12:24:04.713Z,16.09
2022-12-25T12:26:38.198Z,16.13
2022-12-25T12:29:08.750Z,16.18
2022-12-25T12:31:42.461Z,16.13
2022-12-25T12:34:33.106Z,16.25
2022-12-25T12:37:05.157Z,16.17
2022-12-25T12:39:40.631Z,16.17
2022-12-25T12:42:18.061Z,16.17
2022-12-25T12:44:46.303Z,15.76
2022-12-25T12:47:38.637Z,14.93
2022-12-25T12:50:06.838Z,14.57
2022-12-25T12:52:38.169Z,14.49
2022-12-25T12:55:14.388Z,14.37
2022-12-25T12:57:42.907Z,14.37
2022-12-25T13:00:17.042Z,14.73
2022-12-25T13:02:43.752Z,15.10
2022-12-25T13:05:34.013Z,15.42
2022-12-25T13:08:16.498Z,15.28
2022-12-25T13:10:52.850Z,14.59
2022-12-25T13:13:27.819Z,14.59
2022-12-25T13:15:56.086Z,14.37
2022-12-25T13:18:22.812Z,14.33
2022-12-25T13:21:04.965Z,14.46
2022-12-25T13:23:37.820Z,14.55
2022-12-25T13:26:17.320Z,14.54
2022-12-25T13:28:46.749Z,14.61
2022-12-25T13:31:13.628Z,14.52
2022-12-25T13:33:41.245Z,14.59
2022-12-25T13:36:13.588Z,14.49
2022-12-25T13:38:46.244Z,14.61
2022-12-25T13:41:37.437Z,14.43
2022-12-25T13:44:17.134Z,14.39
2022-12-25T13:46:44.591Z,14.34
2022-12-25T13:49:15.649Z,14.49
2022-12-25T13:51:42.666Z,14.42
2022-12-25T13:54:13.196Z,14.40
2022-12-25T13:56:55.409Z,14.22
2022-12-25T13:59:24.932Z,14.08
2022-12-25T14:01:54.156Z,13.93
2022-12-25T14:04:24.582Z,13.96
2022-12-25T14:06:52.744Z,13.68
2022-12-25T14:09:20.480Z,13.69
2022-12-25T14:11:51.329Z,13.65
2022-12-25T14:14:23.452Z,13.59
2022-12-25T14:16:53.604Z,13.50
2022-12-25T14:19:33.023Z,13.17
2022-12-25T14:22:22.671Z,13.00
2022-12-25T14:24:49.805Z,12.78
2022-12-25T14:27:26.564Z,12.55
2022-12-25T14:29:56.901Z,12.44
2022-12-25T14:32:27.618Z,12.29
2022-12-25T14:34:58.728Z,12.26
2022-12-25T14:37:31.410Z,12.09
2022-12-25T14:39:59.928Z,12.00
2022-12-25T14:42:32.468Z,12.01
2022-12-25T14:45:24.766Z,11.91
2022-12-25T14:47:53.764Z,11.94
2022-12-25T14:50:32.168Z,11.88
2022-12-25T14:52:59.708Z,11.70
2022-12-25T14:55:28.987Z,11.47
2022-12-25T14:58:05.333Z,11.23
2022-12-25T15:00:35.501Z,11.02
2022-12-25T15:03:05.909Z,10.74
2022-12-25T15:05:38.304Z,10.52
2022-12-25T15:08:13.875Z,10.23
2022-12-25T15:13:29.340Z,9.79
2022-12-25T15:16:02.497Z,9.63
2022-12-25T15:18:39.993Z,9.45
2022-12-25T15:21:11.402Z,9.27
2022-12-25T15:23:38.144Z,9.08
2022-12-25T15:26:04.956Z,8.94
2022-12-25T15:28:32.450Z,8.75
2022-12-25T15:30:59.254Z,8.60
2022-12-25T15:33:25.997Z,8.53
2022-12-25T15:35:52.717Z,8.42
2022-12-25T15:38:19.434Z,8.29
2022-12-25T15:40:47.202Z,8.14
2022-12-25T15:46:04.532Z,7.61
2022-12-25T15:48:31.309Z,7.46
2022-12-25T15:50:58.090Z,7.33
2022-12-25T15:53:26.442Z,7.32
2022-12-25T15:55:53.201Z,7.36
2022-12-25T15:58:19.919Z,7.33
2022-12-25T16:00:46.750Z,7.31
2022-12-25T16:03:13.533Z,7.24
2022-12-25T16:05:40.387Z,7.09
2022-12-25T16:08:07.204Z,6.77
2022-12-25T16:10:38.634Z,6.28
2022-12-25T16:13:05.595Z,6.02
2022-12-25T16:15:32.515Z,6.04
2022-12-25T16:17:59.246Z,6.09
2022-12-25T16:20:25.985Z,6.01
2022-12-25T16:22:52.683Z,5.76
2022-12-25T16:25:20.201Z,5.73
2022-12-25T16:27:47.492Z,5.64
2022-12-25T16:30:16.143Z,5.58
2022-12-25T16:32:44.192Z,5.77
2022-12-25T16:35:11.913Z,5.90
2022-12-25T16:37:39.978Z,6.00
2022-12-25T16:40:10.458Z,6.15
2022-12-25T16:42:38.347Z,6.12
2022-12-25T16:45:05.857Z,6.06
2022-12-25T16:47:32.640Z,5.97
2022-12-25T16:49:59.450Z,5.73
2022-12-25T16:52:26.354Z,5.57
2022-12-25T16:54:53.117Z,5.47
2022-12-25T16:57:19.839Z,5.46
2022-12-25T16:59:46.788Z,5.46
2022-12-25T17:02:17.072Z,5.34
2022-12-25T17:04:45.029Z,4.98
2022-12-25T17:07:13.064Z,4.61
2022-12-25T17:09:44.120Z,4.45
2022-12-25T17:12:11.385Z,4.36
2022-12-25T17:14:38.303Z,4.35
2022-12-25T17:17:05.052Z,4.16
2022-12-25T17:19:31.951Z,3.95
2022-12-25T17:21:59.903Z,3.80
2022-12-25T17:24:27.923Z,3.97
2022-12-25T17:26:54.731Z,4.19
2022-12-25T17:29:22.696Z,3.94
2022-12-25T17:31:50.275Z,3.92
2022-12-25T17:34:17.099Z,3.85
2022-12-25T17:36:43.993Z,3.72
2022-12-25T17:39:11.249Z,3.54
2022-12-25T17:41:37.869Z,3.38
2022-12-25T17:44:04.852Z,3.33
2022-12-25T17:46:32.486Z,3.40
2022-12-25T17:49:01.130Z,3.58
2022-12-25T17:51:30.184Z,3.67
2022-12-25T17:54:00.559Z,3.64
2022-12-25T17:56:27.313Z,3.65
2022-12-25T17:58:57.082Z,3.64
2022-12-25T18:01:25.524Z,3.68
2022-12-25T18:03:52.467Z,3.74
2022-12-25T18:06:21.573Z,3.76
2022-12-25T18:08:49.171Z,3.50
2022-12-25T18:11:21.953Z,3.36
2022-12-25T18:13:52.328Z,3.22
2022-12-25T18:16:24.554Z,3.22
2022-12-25T18:18:53.004Z,3.17
2022-12-25T18:21:22.137Z,3.09
2022-12-25T18:23:49.734Z,2.90
2022-12-25T18:26:18.281Z,2.76
2022-12-25T18:28:45.574Z,2.82
2022-12-25T18:31:20.208Z,2.80
2022-12-25T18:33:48.253Z,2.78
2022-12-25T18:36:17.936Z,2.69
2022-12-25T18:38:45.237Z,2.67
2022-12-25T18:41:12.341Z,2.75
2022-12-25T18:43:52.778Z,2.65
2022-12-25T18:46:25.541Z,2.60
2022-12-25T18:48:56.542Z,2.57
2022-12-25T18:51:23.884Z,2.62
2022-12-25T18:53:51.353Z,2.73
2022-12-25T18:56:20.205Z,2.81
2022-12-25T18:58:47.279Z,2.77
2022-12-25T19:01:19.618Z,2.83
2022-12-25T19:03:49.035Z,2.64
2022-12-25T19:06:22.700Z,2.83
2022-12-25T19:08:49.699Z,2.97
2022-12-25T19:11:17.897Z,2.63
2022-12-25T19:13:45.517Z,2.44
2022-12-25T19:16:12.929Z,2.35
2022-12-25T19:18:40.472Z,2.20
2022-12-25T19:21:09.012Z,2.18
2022-12-25T19:23:37.602Z,2.03
2022-12-25T19:26:08.849Z,1.92
2022-12-25T19:28:36.583Z,1.94
2022-12-25T19:31:07.468Z,1.94
2022-12-25T19:33:36.155Z,1.88
2022-12-25T19:36:07.215Z,1.84
2022-12-25T19:38:34.307Z,1.82
2022-12-25T19:41:05.562Z,1.78
2022-12-25T19:43:35.603Z,1.57
2022-12-25T19:46:02.827Z,1.55
2022-12-25T19:48:30.523Z,1.51
2022-12-25T19:50:57.647Z,1.50
2022-12-25T19:53:25.184Z,1.44
2022-12-25T19:55:52.924Z,1.30
2022-12-25T19:58:20.877Z,1.17
2022-12-25T20:01:01.464Z,1.08
2022-12-25T20:03:28.464Z,1.09
2022-12-25T20:05:55.311Z,1.15
2022-12-25T20:08:22.320Z,1.17
2022-12-25T20:10:49.610Z,1.19
2022-12-25T20:13:16.604Z,1.16
2022-12-25T20:15:43.574Z,1.21
2022-12-25T20:18:10.256Z,1.16
2022-12-25T20:20:36.997Z,1.12
2022-12-25T20:23:03.999Z,1.06
2022-12-25T20:25:30.835Z,0.99
2022-12-25T20:27:58.083Z,0.83
2022-12-25T20:30:24.643Z,0.76
2022-12-25T20:32:51.353Z,0.63
2022-12-25T20:35:18.172Z,0.51
2022-12-25T20:37:45.012Z,0.73
2022-12-25T20:40:13.118Z,0.83
2022-12-25T20:42:39.868Z,0.95
2022-12-25T20:45:07.772Z,1.06
2022-12-25T20:47:35.297Z,0.94
2022-12-25T20:50:02.336Z,1.08
2022-12-25T20:52:29.090Z,1.06
2022-12-25T20:54:55.936Z,0.93
2022-12-25T20:57:22.743Z,0.88
2022-12-25T20:59:49.621Z,0.73
2022-12-25T21:02:34.324Z,0.54
2022-12-25T21:05:07.123Z,0.56
2022-12-25T21:07:34.275Z,0.56
2022-12-25T21:10:00.967Z,0.21
2022-12-25T21:12:27.684Z,-0.05
2022-12-25T21:14:54.412Z,-0.03
2022-12-25T21:17:21.195Z,-0.09
2022-12-25T21:19:48.395Z,0.00
2022-12-25T21:22:15.452Z,0.11
2022-12-25T21:24:42.257Z,0.05
2022-12-25T21:27:09.144Z,0.13
2022-12-25T21:29:36.019Z,0.26
2022-12-25T21:32:21.621Z,0.41
2022-12-25T21:34:48.444Z,0.76
2022-12-25T21:37:17.296Z,0.61
2022-12-25T21:39:45.109Z,0.52
2022-12-25T21:42:12.391Z,0.53
2022-12-25T21:44:38.952Z,0.41
2022-12-25T21:47:06.067Z,0.39
2022-12-25T21:49:51.725Z,0.40
2022-12-25T21:52:19.235Z,0.48
2022-12-25T21:54:46.677Z,0.54
2022-12-25T21:57:14.068Z,0.58
2022-12-25T21:59:40.677Z,0.64
2022-12-25T22:02:11.546Z,0.73
2022-12-25T22:04:39.112Z,0.46
2022-12-25T22:07:17.656Z,0.05
2022-12-25T22:09:46.369Z,-0.06
2022-12-25T22:12:44.744Z,-0.06
2022-12-25T22:15:12.033Z,-0.16
2022-12-25T22:17:59.029Z,-0.24
2022-12-25T22:20:35.597Z,-0.20
2022-12-25T22:23:02.882Z,-0.15
2022-12-25T22:25:29.746Z,-0.06
2022-12-25T22:27:57.787Z,-0.06
2022-12-25T22:30:27.445Z,0.01
2022-12-25T22:32:54.246Z,-0.12
2022-12-25T22:35:21.394Z,-0.21
2022-12-25T22:37:49.600Z,-0.37
2022-12-25T22:40:19.244Z,-0.42
2022-12-25T22:42:46.798Z,-0.50
2022-12-25T22:45:14.216Z,-0.55
2022-12-25T22:47:41.185Z,-0.65
2022-12-25T22:50:08.665Z,-0.73
2022-12-25T22:52:36.612Z,-0.68
2022-12-25T22:55:04.619Z,-0.77
2022-12-25T22:57:31.345Z,-0.67
2022-12-25T22:59:58.272Z,-0.69
2022-12-25T23:02:25.161Z,-0.55
2022-12-25T23:04:53.023Z,-0.47
2022-12-25T23:07:19.774Z,-0.45
2022-12-25T23:09:46.634Z,-0.44
2022-12-25T23:12:33.358Z,-0.41
2022-12-25T23:15:00.238Z,-0.41
2022-12-25T23:17:45.800Z,-0.37
2022-12-25T23:20:33.009Z,-0.38
2022-12-25T23:23:18.367Z,-0.38
2022-12-25T23:26:03.625Z,-0.56
2022-12-25T23:28:48.879Z,-0.78
2022-12-25T23:31:15.678Z,-0.88
2022-12-25T23:33:42.412Z,-0.88
2022-12-25T23:36:09.329Z,-0.83
2022-12-25T23:38:36.054Z,-0.80
2022-12-25T23:41:02.855Z,-0.83
2022-12-25T23:43:29.673Z,-0.79
2022-12-25T23:45:56.385Z,-0.84
2022-12-25T23:48:23.166Z,-0.78
2022-12-25T23:50:49.849Z,-0.78
2022-12-25T23:53:16.599Z,-0.79
2022-12-25T23:55:43.497Z,-0.80
2022-12-25T23:58:10.594Z,-0.86
